createdAt,value
2018-07-13T00:01:27.629Z,100083.33
2018-07-13T00:03:58.230Z,100078.19
2018-07-13T00:06:31.874Z,100074.36
2018-07-13T00:09:02.324Z,100075.66
2018-07-13T00:11:33.683Z,100074.63
2018-07-13T00:14:19.755Z,100074.89
2018-07-13T00:16:54.571Z,100080.34
2018-07-13T00:19:27.986Z,100076.88
2018-07-13T00:22:03.055Z,100072.50
2018-07-13T00:24:41.960Z,100075.59
2018-07-13T00:27:19.937Z,100073.19
2018-07-13T00:35:22.083Z,100068.55
2018-07-13T00:38:02.397Z,100076.34
2018-07-13T00:40:37.219Z,100077.55
2018-07-13T00:43:24.079Z,100081.81
2018-07-13T00:46:07.805Z,100083.40
2018-07-13T00:48:51.556Z,100084.41
2018-07-13T00:51:27.789Z,100083.75
2018-07-13T00:54:06.219Z,100088.39
2018-07-13T00:56:45.212Z,100091.38
2018-07-13T00:59:23.774Z,100091.83
2018-07-13T01:01:56.316Z,100099.40
2018-07-13T01:04:27.180Z,100096.98
2018-07-13T01:06:57.778Z,100096.02
2018-07-13T01:09:28.981Z,100102.20
2018-07-13T01:11:59.600Z,100098.80
2018-07-13T01:14:29.946Z,100098.86
2018-07-13T01:17:01.469Z,100103.03
2018-07-13T01:19:33.155Z,100104.73
2018-07-13T01:22:03.453Z,100097.76
2018-07-13T01:24:34.237Z,100102.89
2018-07-13T01:27:07.727Z,100101.05
2018-07-13T01:29:38.352Z,100097.27
2018-07-13T01:32:08.956Z,100102.76
2018-07-13T01:34:39.574Z,100113.10
2018-07-13T01:37:10.351Z,100101.47
2018-07-13T01:39:41.010Z,100098.84
2018-07-13T01:42:12.123Z,100102.48
2018-07-13T01:44:44.981Z,100103.06
2018-07-13T01:47:15.536Z,100098.58
2018-07-13T01:49:46.629Z,100104.63
2018-07-13T01:52:17.183Z,100101.50
2018-07-13T01:54:47.940Z,100101.19
2018-07-13T01:57:20.068Z,100102.08
2018-07-13T01:59:50.630Z,100107.04
2018-07-13T02:02:23.196Z,100107.64
2018-07-13T02:04:54.196Z,100111.50
2018-07-13T02:07:25.483Z,100107.71
2018-07-13T02:09:57.430Z,100104.72
2018-07-13T02:12:28.240Z,100116.42
2018-07-13T02:14:59.371Z,100114.33
2018-07-13T02:17:30.216Z,100116.53
2018-07-13T02:20:00.871Z,100115.75
2018-07-13T02:22:31.199Z,100110.63
2018-07-13T02:25:01.731Z,100111.84
2018-07-13T02:27:32.135Z,100116.11
2018-07-13T02:30:05.632Z,100126.30
2018-07-13T02:32:36.805Z,100122.52
2018-07-13T02:35:07.973Z,100121.98
2018-07-13T02:37:38.982Z,100128.62
2018-07-13T02:40:09.770Z,100126.43
2018-07-13T02:42:41.102Z,100126.28
2018-07-13T02:45:14.142Z,100128.66
2018-07-13T02:47:44.711Z,100130.83
2018-07-13T02:50:16.251Z,100133.70
2018-07-13T02:52:47.893Z,100132.09
2018-07-13T02:55:20.204Z,100132.83
2018-07-13T02:57:51.125Z,100136.48
2018-07-13T03:00:22.162Z,100141.14
2018-07-13T03:02:52.894Z,100133.58
2018-07-13T03:05:27.193Z,100145.83
2018-07-13T03:07:57.800Z,100142.08
2018-07-13T03:10:28.701Z,100138.48
2018-07-13T03:12:59.762Z,100150.01
2018-07-13T03:15:30.400Z,100157.22
2018-07-13T03:18:01.030Z,100150.38
2018-07-13T03:20:31.802Z,100158.67
2018-07-13T03:23:03.066Z,100156.83
2018-07-13T03:25:34.112Z,100162.01
2018-07-13T03:28:04.841Z,100159.55
2018-07-13T03:30:36.993Z,100162.05
2018-07-13T03:33:07.579Z,100168.68
2018-07-13T03:35:38.978Z,100163.98
2018-07-13T03:38:09.673Z,100168.80
2018-07-13T03:40:40.268Z,100168.64
2018-07-13T03:43:10.890Z,100168.16
2018-07-13T03:45:41.427Z,100168.05
2018-07-13T03:48:12.562Z,100175.38
2018-07-13T03:50:43.211Z,100169.77
2018-07-13T03:53:13.916Z,100169.66
2018-07-13T03:55:44.809Z,100150.01
2018-07-13T03:58:16.105Z,100166.95
2018-07-13T04:00:46.667Z,100162.41
2018-07-13T04:03:18.550Z,100170.19
2018-07-13T04:05:49.166Z,100167.69
2018-07-13T04:08:20.532Z,100165.74
2018-07-13T04:10:51.301Z,100165.45
2018-07-13T04:13:21.895Z,100163.61
2018-07-13T04:15:52.982Z,100165.02
2018-07-13T04:18:25.052Z,100160.61
2018-07-13T04:20:55.968Z,100157.68
2018-07-13T04:23:27.234Z,100161.67
2018-07-13T04:25:58.741Z,100154.20
2018-07-13T04:28:29.473Z,100166.52
2018-07-13T04:31:00.385Z,100084.24
2018-07-13T04:33:31.116Z,100165.47
2018-07-13T04:36:01.809Z,100167.25
2018-07-13T04:38:33.082Z,100167.43
2018-07-13T04:41:03.783Z,100166.45
2018-07-13T04:43:34.626Z,100166.45
2018-07-13T04:46:05.937Z,100166.81
2018-07-13T04:48:36.620Z,100171.30
2018-07-13T04:51:09.619Z,100172.67
2018-07-13T04:53:40.527Z,100175.39
2018-07-13T04:56:11.215Z,100178.89
2018-07-13T04:58:42.160Z,100180.49
2018-07-13T05:01:12.854Z,100180.67
2018-07-13T05:03:44.554Z,100179.47
2018-07-13T05:06:18.877Z,100185.70
2018-07-13T05:08:51.400Z,100179.97
2018-07-13T05:11:22.152Z,100186.73
2018-07-13T05:13:52.960Z,100182.64
2018-07-13T05:16:26.038Z,100188.98
2018-07-13T05:18:57.493Z,100186.63
2018-07-13T05:21:29.321Z,100178.18
2018-07-13T05:24:00.670Z,100182.53
2018-07-13T05:26:34.278Z,100158.23
2018-07-13T05:31:29.829Z,100189.08
2018-07-13T05:34:00.960Z,100188.28
2018-07-13T05:36:32.636Z,100179.16
2018-07-13T05:39:03.112Z,100190.06
2018-07-13T05:41:34.162Z,100187.72
2018-07-13T05:44:05.139Z,100190.05
2018-07-13T05:46:35.859Z,100194.97
2018-07-13T05:49:07.536Z,100194.16
2018-07-13T05:51:38.978Z,100197.23
2018-07-13T05:54:09.650Z,100201.27
2018-07-13T05:56:41.228Z,100198.58
2018-07-13T05:59:12.893Z,100206.47
2018-07-13T06:01:44.220Z,100203.47
2018-07-13T06:04:19.535Z,100202.83
2018-07-13T06:06:50.403Z,100206.63
2018-07-13T06:09:21.547Z,100210.47
2018-07-13T06:12:21.745Z,100137.96
2018-07-13T06:14:52.864Z,100214.72
2018-07-13T06:17:25.896Z,100211.47
2018-07-13T06:19:58.378Z,100214.03
2018-07-13T06:22:34.215Z,100219.84
2018-07-13T06:25:07.146Z,100219.34
2018-07-13T06:27:37.473Z,100204.06
2018-07-13T06:30:08.206Z,100217.63
2018-07-13T06:32:45.307Z,100215.23
2018-07-13T06:35:16.093Z,100215.02
2018-07-13T06:37:50.745Z,100210.54
2018-07-13T06:40:22.081Z,100214.98
2018-07-13T06:43:04.813Z,100222.28
2018-07-13T06:45:44.683Z,100210.41
2018-07-13T06:48:15.033Z,100220.53
2018-07-13T06:50:48.774Z,100213.39
2018-07-13T06:53:25.242Z,100220.97
2018-07-13T06:55:57.192Z,100215.62
2018-07-13T06:58:42.597Z,100214.94
2018-07-13T07:01:13.817Z,100228.13
2018-07-13T07:08:05.438Z,100224.69
2018-07-13T07:10:36.640Z,100224.52
2018-07-13T07:13:19.797Z,100224.67
2018-07-13T07:15:53.599Z,100216.30
2018-07-13T07:18:27.080Z,100222.55
2018-07-13T07:21:15.243Z,100218.00
2018-07-13T07:23:48.899Z,100217.13
2018-07-13T07:26:21.321Z,100213.48
2018-07-13T07:28:56.893Z,100220.73
2018-07-13T07:31:29.684Z,100217.33
2018-07-13T07:34:07.545Z,100219.84
2018-07-13T07:36:41.306Z,100217.00
2018-07-13T07:39:24.427Z,100220.09
2018-07-13T07:42:08.805Z,100216.68
2018-07-13T07:44:44.144Z,100223.03
2018-07-13T07:47:17.806Z,100230.06
2018-07-13T07:49:50.578Z,100231.86
2018-07-13T07:52:23.100Z,100226.64
2018-07-13T07:54:55.718Z,100216.59
2018-07-13T07:57:27.214Z,100221.46
2018-07-13T07:59:59.801Z,100224.02
2018-07-13T08:02:32.253Z,100229.89
2018-07-13T08:05:12.952Z,100233.20
2018-07-13T08:07:48.223Z,100219.96
2018-07-13T08:10:20.143Z,100228.56
2018-07-13T08:13:01.326Z,100228.18
2018-07-13T08:16:37.496Z,100225.62
2018-07-13T08:19:10.839Z,100226.98
2018-07-13T08:21:46.680Z,100222.37
2018-07-13T08:24:23.179Z,100222.81
2018-07-13T08:27:01.245Z,100222.84
2018-07-13T08:29:36.767Z,100217.26
2018-07-13T08:32:16.354Z,100220.22
2018-07-13T08:34:46.923Z,100223.02
2018-07-13T08:37:18.799Z,100216.52
2018-07-13T08:39:53.075Z,100221.86
2018-07-13T08:42:24.009Z,100220.96
2018-07-13T08:44:57.976Z,100220.48
2018-07-13T08:47:31.563Z,100222.90
2018-07-13T08:50:05.291Z,100220.77
2018-07-13T08:52:41.066Z,100219.41
2018-07-13T08:55:15.051Z,100218.93
2018-07-13T08:57:56.992Z,100215.33
2018-07-13T09:00:29.157Z,100218.66
2018-07-13T09:03:04.613Z,100214.62
2018-07-13T09:05:37.027Z,100209.26
2018-07-13T09:08:12.387Z,100152.84
2018-07-13T09:10:46.939Z,100207.66
2018-07-13T09:13:20.389Z,100206.98
2018-07-13T09:16:07.253Z,100205.02
2018-07-13T09:18:41.336Z,100205.34
2018-07-13T09:21:15.371Z,100203.75
2018-07-13T09:23:46.785Z,100203.11
2018-07-13T09:26:19.262Z,100200.00
2018-07-13T09:28:54.420Z,100202.72
2018-07-13T09:31:31.218Z,100207.05
2018-07-13T09:34:06.865Z,100209.72
2018-07-13T09:36:40.179Z,100189.16
2018-07-13T09:39:12.706Z,100204.45
2018-07-13T09:41:44.269Z,100201.31
2018-07-13T09:44:20.450Z,100211.23
2018-07-13T09:47:11.426Z,100209.77
2018-07-13T09:49:44.883Z,100204.74
2018-07-13T09:52:21.735Z,100201.53
2018-07-13T09:54:54.902Z,100206.36
2018-07-13T10:07:59.154Z,100189.16
2018-07-13T10:10:31.048Z,100201.42
2018-07-13T10:13:05.496Z,100191.30
2018-07-13T10:15:37.763Z,100204.73
2018-07-13T10:18:11.920Z,100198.52
2018-07-13T10:20:46.678Z,100195.24
2018-07-13T10:23:18.012Z,100198.48
2018-07-13T10:26:09.568Z,100195.19
2018-07-13T10:28:41.895Z,100198.09
2018-07-13T10:31:14.834Z,100189.26
2018-07-13T10:33:49.070Z,100192.56
2018-07-13T10:36:22.455Z,100188.57
2018-07-13T10:41:33.402Z,100194.47
2018-07-13T10:44:06.465Z,100190.25
2018-07-13T10:46:41.700Z,100185.89
2018-07-13T10:49:13.895Z,100188.98
2018-07-13T10:51:47.800Z,100186.46
2018-07-13T10:54:22.653Z,100185.08
2018-07-13T10:56:58.467Z,100187.17
2018-07-13T10:59:33.175Z,100181.39
2018-07-13T11:02:07.316Z,100178.27
2018-07-13T11:04:40.569Z,100171.02
2018-07-13T11:07:12.652Z,100173.11
2018-07-13T11:09:44.224Z,100172.87
2018-07-13T11:12:24.188Z,100168.43
2018-07-13T11:14:55.683Z,100168.81
2018-07-13T11:17:28.362Z,100165.20
2018-07-13T11:20:05.259Z,100162.39
2018-07-13T11:22:41.105Z,100158.80
2018-07-13T11:25:14.406Z,100155.70
2018-07-13T11:27:45.848Z,100154.39
2018-07-13T11:30:18.879Z,100158.55
2018-07-13T11:32:51.873Z,100160.33
2018-07-13T11:35:27.075Z,100151.88
2018-07-13T11:38:10.626Z,100153.31
2018-07-13T11:40:42.840Z,100150.77
2018-07-13T11:43:14.746Z,100143.72
2018-07-13T11:45:48.016Z,100146.80
2018-07-13T11:48:21.371Z,100141.19
2018-07-13T11:50:54.915Z,100140.11
2018-07-13T11:53:27.572Z,100144.22
2018-07-13T11:55:59.375Z,100138.67
2018-07-13T11:58:34.943Z,100132.20
2018-07-13T12:01:06.679Z,100127.20
2018-07-13T12:03:38.765Z,100138.69
2018-07-13T12:06:10.735Z,100131.86
2018-07-13T12:08:42.235Z,100127.33
2018-07-13T12:11:52.832Z,100129.52
2018-07-13T12:19:32.750Z,100105.45
2018-07-13T12:22:06.326Z,100100.81
2018-07-13T12:24:45.359Z,100112.52
2018-07-13T12:27:29.100Z,100104.59
2018-07-13T12:30:18.943Z,100109.47
2018-07-13T12:32:55.934Z,100110.45
2018-07-13T12:35:44.453Z,100104.63
2018-07-13T12:38:36.291Z,100105.84
2018-07-13T12:41:21.299Z,100104.67
2018-07-13T12:43:57.985Z,100098.37
2018-07-13T12:46:36.975Z,100099.33
2018-07-13T12:49:11.379Z,100102.32
2018-07-13T12:51:45.952Z,100102.52
2018-07-13T12:54:22.918Z,100100.60
2018-07-13T13:25:43.175Z,100089.47
2018-07-13T13:28:34.039Z,100081.67
2018-07-13T13:31:18.276Z,100081.86
2018-07-13T13:33:53.579Z,100080.89
2018-07-13T13:36:27.303Z,100085.73
2018-07-13T13:39:01.571Z,100087.30
2018-07-13T13:41:39.423Z,100090.44
2018-07-13T13:44:12.456Z,100090.59
2018-07-13T13:46:48.630Z,100078.81
2018-07-13T13:49:21.720Z,100085.36
2018-07-13T13:51:59.212Z,100088.92
2018-07-13T13:54:33.477Z,100085.41
2018-07-13T13:57:07.907Z,100079.92
2018-07-13T13:59:39.501Z,100077.66
2018-07-13T14:02:11.878Z,100080.84
2018-07-13T14:04:48.558Z,100080.84
2018-07-13T14:07:20.835Z,100082.05
2018-07-13T14:09:55.521Z,100081.33
2018-07-13T14:12:30.611Z,100075.14
2018-07-13T14:15:08.507Z,100083.11
2018-07-13T14:17:41.981Z,100100.50
2018-07-13T14:20:16.287Z,100087.15
2018-07-13T14:22:53.619Z,100090.17
2018-07-13T14:25:25.831Z,100084.77
2018-07-13T14:28:00.584Z,100064.48
2018-07-13T14:30:33.864Z,100093.11
2018-07-13T14:33:06.635Z,100092.38
2018-07-13T14:35:38.336Z,100080.27
2018-07-13T14:38:13.860Z,100090.38
2018-07-13T14:40:46.758Z,100086.77
2018-07-13T14:43:20.139Z,100089.36
2018-07-13T14:45:53.201Z,100082.81
2018-07-13T14:48:26.446Z,100082.25
2018-07-13T14:51:01.583Z,100078.95
2018-07-13T14:53:33.259Z,100087.18
2018-07-13T14:56:07.500Z,100092.09
2018-07-13T14:58:39.421Z,100092.91
2018-07-13T15:01:12.461Z,100088.95
2018-07-13T15:03:44.182Z,100080.05
2018-07-13T15:06:17.999Z,100085.30
2018-07-13T15:08:52.459Z,100086.83
2018-07-13T15:11:26.337Z,100083.36
2018-07-13T15:13:58.720Z,100086.25
2018-07-13T15:16:33.692Z,100088.33
2018-07-13T15:19:08.752Z,100094.09
2018-07-13T15:21:43.466Z,100089.39
2018-07-13T15:24:24.802Z,100083.83
2018-07-13T15:26:59.252Z,100078.05
2018-07-13T15:29:49.583Z,100074.06
2018-07-13T15:32:21.230Z,100069.73
2018-07-13T15:35:03.648Z,100076.53
2018-07-13T15:37:40.457Z,100065.66
2018-07-13T15:40:13.436Z,100072.60
2018-07-13T15:42:49.542Z,100070.86
2018-07-13T15:45:21.463Z,100075.51
2018-07-13T15:47:54.516Z,100072.32
2018-07-13T15:53:38.358Z,100075.48
2018-07-13T15:56:13.004Z,100076.71
2018-07-13T15:58:46.448Z,100074.77
2018-07-13T16:01:17.947Z,100077.21
2018-07-13T16:03:51.953Z,100079.48
2018-07-13T16:06:28.971Z,100073.94
2018-07-13T16:09:00.588Z,100067.58
2018-07-13T16:11:33.007Z,100064.48
2018-07-13T16:14:06.586Z,100064.84
2018-07-13T16:16:40.840Z,100062.69
2018-07-13T16:19:12.343Z,100069.04
2018-07-13T16:21:46.567Z,100061.39
2018-07-13T16:24:18.674Z,100064.34
2018-07-13T16:26:50.364Z,100061.91
2018-07-13T16:29:21.955Z,100057.84
2018-07-13T16:31:53.795Z,100057.41
2018-07-13T16:34:26.195Z,100057.00
2018-07-13T16:36:58.402Z,100056.47
2018-07-13T16:39:29.900Z,100045.33
2018-07-13T16:44:39.887Z,100028.85
2018-07-13T16:47:14.772Z,100043.47
2018-07-13T16:49:47.453Z,100047.06
2018-07-13T16:52:19.064Z,100044.57
2018-07-13T16:54:55.380Z,100047.29
2018-07-13T16:57:26.777Z,100034.22
2018-07-13T17:00:00.479Z,100042.48
2018-07-13T17:02:32.599Z,100040.09
2018-07-13T17:05:09.712Z,100039.46
2018-07-13T17:07:43.569Z,100038.03
2018-07-13T17:10:15.980Z,100037.45
2018-07-13T17:12:49.253Z,100039.39
2018-07-13T17:15:22.012Z,100037.97
2018-07-13T17:17:54.254Z,100021.34
2018-07-13T17:20:30.557Z,100024.48
2018-07-13T17:23:05.665Z,100035.64
2018-07-13T17:25:39.814Z,100030.30
2018-07-13T17:28:11.228Z,100023.07
2018-07-13T17:30:44.693Z,100024.27
2018-07-13T17:33:18.557Z,100019.05
2018-07-13T17:35:50.784Z,100015.42
2018-07-13T17:38:23.141Z,100012.52
2018-07-13T17:40:56.557Z,100015.16
2018-07-13T17:43:28.041Z,100026.31
2018-07-13T17:46:00.933Z,100017.32
2018-07-13T17:48:33.608Z,100023.06
2018-07-13T17:51:07.619Z,100023.39
2018-07-13T17:53:42.243Z,100026.08
2018-07-13T17:56:14.533Z,100021.46
2018-07-13T17:58:49.309Z,100017.27
2018-07-13T18:01:22.127Z,100011.07
2018-07-13T18:03:57.934Z,100011.60
2018-07-13T18:06:32.587Z,100022.78
2018-07-13T18:09:04.851Z,100016.61
2018-07-13T18:11:36.921Z,100025.69
2018-07-13T18:14:09.558Z,100023.39
2018-07-13T18:16:41.339Z,100024.27
2018-07-13T18:19:17.323Z,100027.91
2018-07-13T18:21:48.697Z,100027.13
2018-07-13T18:24:21.620Z,100030.55
2018-07-13T18:26:53.564Z,100030.50
2018-07-13T18:29:29.523Z,100028.84
2018-07-13T18:32:00.918Z,100028.73
2018-07-13T18:34:35.022Z,100031.16
2018-07-13T18:37:06.455Z,100029.72
2018-07-13T18:39:39.024Z,100008.77
2018-07-13T18:42:11.643Z,100028.77
2018-07-13T18:44:43.413Z,100029.71
2018-07-13T18:47:16.396Z,99965.77
2018-07-13T18:49:48.759Z,100028.36
2018-07-13T18:52:23.499Z,100020.78
2018-07-13T18:54:56.550Z,100025.92
2018-07-13T18:57:30.032Z,100024.69
2018-07-13T19:00:02.448Z,100030.55
2018-07-13T19:02:36.825Z,100029.72
2018-07-13T19:05:10.048Z,100034.98
2018-07-13T19:07:48.301Z,100034.79
2018-07-13T19:10:21.065Z,100036.75
2018-07-13T19:12:56.341Z,100036.66
2018-07-13T19:15:28.756Z,100039.88
2018-07-13T19:18:00.848Z,100035.48
2018-07-13T19:20:33.415Z,100038.38
2018-07-13T19:23:09.644Z,100040.03
2018-07-13T19:25:44.490Z,100048.28
2018-07-13T19:28:18.491Z,100038.84
2018-07-13T19:30:53.590Z,100049.30
2018-07-13T19:33:26.944Z,100045.42
2018-07-13T19:36:04.169Z,100050.72
2018-07-13T19:38:43.440Z,100052.66
2018-07-13T19:41:18.205Z,100064.33
2018-07-13T19:43:53.154Z,100063.86
2018-07-13T19:46:33.548Z,100061.72
2018-07-13T19:49:07.844Z,100061.78
2018-07-13T19:51:41.383Z,100062.66
2018-07-13T19:54:14.887Z,100069.22
2018-07-13T19:56:46.360Z,100073.32
2018-07-13T19:59:18.452Z,100077.22
2018-07-13T20:01:58.146Z,100082.73
2018-07-13T20:04:39.411Z,100078.90
2018-07-13T20:07:13.641Z,100082.48
2018-07-13T20:09:51.484Z,100076.48
2018-07-13T20:12:24.684Z,100080.08
2018-07-13T20:15:01.090Z,100080.87
2018-07-13T20:17:59.603Z,100090.20
2018-07-13T20:20:40.434Z,100089.94
2018-07-13T20:23:19.502Z,100091.28
2018-07-13T20:25:57.081Z,100098.44
2018-07-13T20:28:36.541Z,100092.39
2018-07-13T20:31:10.019Z,100100.09
2018-07-13T20:33:46.469Z,100096.52
2018-07-13T20:36:22.451Z,100086.09
2018-07-13T20:38:56.553Z,100078.67
2018-07-13T20:41:32.223Z,100111.02
2018-07-13T20:46:48.936Z,100112.56
2018-07-13T20:49:21.821Z,100110.36
2018-07-13T20:51:53.887Z,100112.81
2018-07-13T20:54:27.879Z,100102.39
2018-07-13T20:57:00.576Z,100110.05
2018-07-13T20:59:32.004Z,100114.71
2018-07-13T21:02:03.339Z,100112.50
2018-07-13T21:04:39.493Z,100110.06
2018-07-13T21:07:11.305Z,100108.65
2018-07-13T21:09:50.645Z,100111.66
2018-07-13T21:12:24.346Z,100110.21
2018-07-13T21:15:00.801Z,100117.63
2018-07-13T21:17:34.534Z,100122.50
2018-07-13T21:20:05.973Z,100124.70
2018-07-13T21:22:41.893Z,100128.22
2018-07-13T21:25:14.220Z,100132.31
2018-07-13T21:27:50.436Z,100114.18
2018-07-13T21:30:26.521Z,100143.00
2018-07-13T21:32:58.962Z,100138.06
2018-07-13T21:35:31.284Z,100139.37
2018-07-13T21:38:11.850Z,100134.69
2018-07-13T21:40:44.983Z,100131.39
2018-07-13T21:43:19.204Z,100130.59
2018-07-13T21:45:50.865Z,100131.08
2018-07-13T21:48:22.441Z,100142.09
2018-07-13T21:50:57.608Z,100139.57
2018-07-13T21:53:32.404Z,100144.16
2018-07-13T21:56:06.168Z,100143.19
2018-07-13T21:58:39.271Z,100144.77
2018-07-13T22:01:17.118Z,100151.56
2018-07-13T22:04:22.240Z,100149.08
2018-07-13T22:07:04.213Z,100151.55
2018-07-13T22:09:39.208Z,100149.63
2018-07-13T22:12:13.033Z,100147.45
2018-07-13T22:14:46.995Z,100144.73
2018-07-13T22:17:19.794Z,100149.92
2018-07-13T22:19:51.635Z,100145.77
2018-07-13T22:22:24.216Z,100149.58
2018-07-13T22:24:55.860Z,100148.02
2018-07-13T22:27:28.706Z,100147.11
2018-07-13T22:30:05.299Z,100152.08
2018-07-13T22:32:37.273Z,100154.47
2018-07-13T22:35:14.366Z,100161.02
2018-07-13T22:40:11.944Z,100151.72
2018-07-13T22:42:45.071Z,100143.69
2018-07-13T22:45:17.436Z,100143.41
2018-07-13T22:47:50.196Z,100154.04
2018-07-13T22:50:21.680Z,100154.89
2018-07-13T22:52:54.748Z,100155.98
2018-07-13T22:55:26.260Z,100152.10
2018-07-13T22:58:00.517Z,100151.58
2018-07-13T23:00:34.852Z,100165.20
2018-07-13T23:03:08.628Z,100148.13
2018-07-13T23:05:40.739Z,100153.88
2018-07-13T23:08:11.294Z,100151.40
2018-07-13T23:10:43.360Z,100149.48
2018-07-13T23:13:16.217Z,100146.19
2018-07-13T23:15:49.120Z,100150.31
2018-07-13T23:18:29.603Z,100147.22
2018-07-13T23:21:02.043Z,100148.34
2018-07-13T23:23:37.514Z,100147.66
2018-07-13T23:26:10.109Z,100146.03
2018-07-13T23:28:43.878Z,100143.69
2018-07-13T23:31:16.784Z,100144.84
2018-07-13T23:33:49.299Z,100140.32
2018-07-13T23:36:19.796Z,100138.87
2018-07-13T23:38:52.737Z,100140.42
2018-07-13T23:41:23.701Z,100127.95
2018-07-13T23:43:55.212Z,100134.30
2018-07-13T23:46:26.715Z,100126.94
2018-07-13T23:48:58.390Z,100137.89
2018-07-13T23:51:28.928Z,100135.28
2018-07-13T23:54:02.047Z,100132.64
2018-07-13T23:56:34.780Z,100127.99
2018-07-13T23:59:05.346Z,100130.43
